sensor_id;sensor_type;location;lat;lon;timestamp;P1;durP1;ratioP1;P2;durP2;ratioP2
70560;SDS011;58109;53.570;10.084;2022-12-07T00:01:17;24.58;;;12.02;;
70560;SDS011;58109;53.570;10.084;2022-12-07T00:03:45;18.48;;;11.25;;
70560;SDS011;58109;53.570;10.084;2022-12-07T00:06:12;24.10;;;12.15;;
70560;SDS011;58109;53.570;10.084;2022-12-07T00:08:38;17.50;;;11.30;;
70560;SDS011;58109;53.570;10.084;2022-12-07T00:11:05;18.30;;;11.77;;
70560;SDS011;58109;53.570;10.084;2022-12-07T00:13:38;18.75;;;11.13;;
70560;SDS011;58109;53.570;10.084;2022-12-07T00:18:34;21.90;;;10.68;;
70560;SDS011;58109;53.570;10.084;2022-12-07T00:21:03;21.27;;;11.67;;
70560;SDS011;58109;53.570;10.084;2022-12-07T00:23:34;18.80;;;11.10;;
70560;SDS011;58109;53.570;10.084;2022-12-07T00:26:03;20.00;;;11.67;;
70560;SDS011;58109;53.570;10.084;2022-12-07T00:28:34;18.90;;;10.93;;
70560;SDS011;58109;53.570;10.084;2022-12-07T00:31:03;19.00;;;9.83;;
70560;SDS011;58109;53.570;10.084;2022-12-07T00:33:29;23.00;;;11.95;;
70560;SDS011;58109;53.570;10.084;2022-12-07T00:35:58;19.73;;;11.53;;
70560;SDS011;58109;53.570;10.084;2022-12-07T00:38:24;20.92;;;11.55;;
70560;SDS011;58109;53.570;10.084;2022-12-07T00:40:58;21.48;;;11.73;;
70560;SDS011;58109;53.570;10.084;2022-12-07T00:43:25;19.30;;;11.68;;
70560;SDS011;58109;53.570;10.084;2022-12-07T00:45:54;24.58;;;11.85;;
70560;SDS011;58109;53.570;10.084;2022-12-07T00:48:20;23.48;;;12.63;;
70560;SDS011;58109;53.570;10.084;2022-12-07T00:50:48;22.83;;;11.73;;
70560;SDS011;58109;53.570;10.084;2022-12-07T00:53:16;20.08;;;11.32;;
70560;SDS011;58109;53.570;10.084;2022-12-07T00:55:46;22.58;;;11.15;;
70560;SDS011;58109;53.570;10.084;2022-12-07T00:58:14;19.90;;;10.80;;
70560;SDS011;58109;53.570;10.084;2022-12-07T01:00:42;19.08;;;10.20;;
70560;SDS011;58109;53.570;10.084;2022-12-07T01:03:11;19.67;;;10.68;;
70560;SDS011;58109;53.570;10.084;2022-12-07T01:05:37;18.00;;;10.52;;
70560;SDS011;58109;53.570;10.084;2022-12-07T01:08:03;28.53;;;10.40;;
70560;SDS011;58109;53.570;10.084;2022-12-07T01:10:29;17.95;;;10.02;;
70560;SDS011;58109;53.570;10.084;2022-12-07T01:12:56;18.83;;;9.75;;
70560;SDS011;58109;53.570;10.084;2022-12-07T01:15:22;17.00;;;10.13;;
70560;SDS011;58109;53.570;10.084;2022-12-07T01:17:50;19.90;;;10.60;;
70560;SDS011;58109;53.570;10.084;2022-12-07T01:20:15;18.48;;;10.55;;
70560;SDS011;58109;53.570;10.084;2022-12-07T01:22:43;21.45;;;10.45;;
70560;SDS011;58109;53.570;10.084;2022-12-07T01:25:09;18.23;;;10.00;;
70560;SDS011;58109;53.570;10.084;2022-12-07T01:27:36;18.45;;;9.75;;
70560;SDS011;58109;53.570;10.084;2022-12-07T01:30:02;18.27;;;9.40;;
70560;SDS011;58109;53.570;10.084;2022-12-07T01:32:29;16.73;;;9.02;;
70560;SDS011;58109;53.570;10.084;2022-12-07T01:34:57;18.25;;;9.48;;
70560;SDS011;58109;53.570;10.084;2022-12-07T01:37:22;16.07;;;9.10;;
70560;SDS011;58109;53.570;10.084;2022-12-07T01:39:48;16.10;;;9.30;;
70560;SDS011;58109;53.570;10.084;2022-12-07T01:42:16;19.27;;;9.80;;
70560;SDS011;58109;53.570;10.084;2022-12-07T01:47:51;19.05;;;8.90;;
70560;SDS011;58109;53.570;10.084;2022-12-07T01:50:19;17.13;;;9.95;;
70560;SDS011;58109;53.570;10.084;2022-12-07T01:52:48;21.15;;;10.20;;
70560;SDS011;58109;53.570;10.084;2022-12-07T01:55:14;20.35;;;9.35;;
70560;SDS011;58109;53.570;10.084;2022-12-07T01:57:42;16.23;;;9.90;;
70560;SDS011;58109;53.570;10.084;2022-12-07T02:00:11;23.15;;;9.75;;
70560;SDS011;58109;53.570;10.084;2022-12-07T02:02:42;18.27;;;8.90;;
70560;SDS011;58109;53.570;10.084;2022-12-07T02:05:11;20.42;;;10.27;;
70560;SDS011;58109;53.570;10.084;2022-12-07T02:07:37;20.43;;;10.00;;
70560;SDS011;58109;53.570;10.084;2022-12-07T02:10:15;16.20;;;9.80;;
70560;SDS011;58109;53.570;10.084;2022-12-07T02:12:43;24.40;;;9.23;;
70560;SDS011;58109;53.570;10.084;2022-12-07T02:15:10;19.65;;;9.20;;
70560;SDS011;58109;53.570;10.084;2022-12-07T02:17:41;15.05;;;8.50;;
70560;SDS011;58109;53.570;10.084;2022-12-07T02:28:28;13.25;;;6.10;;
70560;SDS011;58109;53.570;10.084;2022-12-07T02:30:55;14.05;;;7.25;;
70560;SDS011;58109;53.570;10.084;2022-12-07T02:33:37;19.05;;;7.35;;
70560;SDS011;58109;53.570;10.084;2022-12-07T02:36:11;11.85;;;6.88;;
70560;SDS011;58109;53.570;10.084;2022-12-07T02:43:42;14.98;;;6.00;;
70560;SDS011;58109;53.570;10.084;2022-12-07T02:46:23;13.10;;;5.38;;
70560;SDS011;58109;53.570;10.084;2022-12-07T02:48:52;8.05;;;4.90;;
70560;SDS011;58109;53.570;10.084;2022-12-07T02:51:21;13.50;;;5.40;;
70560;SDS011;58109;53.570;10.084;2022-12-07T02:53:49;17.77;;;4.72;;
70560;SDS011;58109;53.570;10.084;2022-12-07T02:59:22;7.00;;;3.42;;
70560;SDS011;58109;53.570;10.084;2022-12-07T03:09:59;5.07;;;3.15;;
70560;SDS011;58109;53.570;10.084;2022-12-07T03:12:46;5.40;;;2.30;;
70560;SDS011;58109;53.570;10.084;2022-12-07T03:15:20;7.10;;;2.60;;
70560;SDS011;58109;53.570;10.084;2022-12-07T03:17:46;7.57;;;2.47;;
70560;SDS011;58109;53.570;10.084;2022-12-07T03:20:15;7.13;;;3.17;;
70560;SDS011;58109;53.570;10.084;2022-12-07T03:22:42;13.55;;;2.85;;
70560;SDS011;58109;53.570;10.084;2022-12-07T03:25:10;5.82;;;2.80;;
70560;SDS011;58109;53.570;10.084;2022-12-07T03:27:38;8.15;;;2.97;;
70560;SDS011;58109;53.570;10.084;2022-12-07T03:30:09;10.05;;;2.53;;
70560;SDS011;58109;53.570;10.084;2022-12-07T03:32:48;4.03;;;2.20;;
70560;SDS011;58109;53.570;10.084;2022-12-07T03:35:23;5.95;;;1.83;;
70560;SDS011;58109;53.570;10.084;2022-12-07T03:38:12;4.50;;;2.20;;
70560;SDS011;58109;53.570;10.084;2022-12-07T03:40:45;4.00;;;1.70;;
70560;SDS011;58109;53.570;10.084;2022-12-07T03:43:15;1.83;;;1.63;;
70560;SDS011;58109;53.570;10.084;2022-12-07T03:45:43;5.55;;;1.52;;
70560;SDS011;58109;53.570;10.084;2022-12-07T03:50:58;5.15;;;2.22;;
70560;SDS011;58109;53.570;10.084;2022-12-07T03:53:31;7.68;;;1.58;;
70560;SDS011;58109;53.570;10.084;2022-12-07T03:55:59;2.20;;;1.10;;
70560;SDS011;58109;53.570;10.084;2022-12-07T03:58:28;7.87;;;1.73;;
70560;SDS011;58109;53.570;10.084;2022-12-07T04:00:53;2.25;;;1.50;;
70560;SDS011;58109;53.570;10.084;2022-12-07T04:03:19;3.77;;;1.40;;
70560;SDS011;58109;53.570;10.084;2022-12-07T04:05:44;5.67;;;1.70;;
70560;SDS011;58109;53.570;10.084;2022-12-07T04:08:10;6.53;;;1.60;;
70560;SDS011;58109;53.570;10.084;2022-12-07T04:10:38;4.03;;;1.57;;
70560;SDS011;58109;53.570;10.084;2022-12-07T04:13:03;3.83;;;1.45;;
70560;SDS011;58109;53.570;10.084;2022-12-07T04:15:29;1.63;;;1.10;;
70560;SDS011;58109;53.570;10.084;2022-12-07T04:17:56;3.80;;;1.45;;
70560;SDS011;58109;53.570;10.084;2022-12-07T04:20:26;3.30;;;1.35;;
70560;SDS011;58109;53.570;10.084;2022-12-07T04:22:54;3.35;;;1.50;;
70560;SDS011;58109;53.570;10.084;2022-12-07T04:25:20;6.43;;;1.92;;
70560;SDS011;58109;53.570;10.084;2022-12-07T04:27:45;2.50;;;1.30;;
70560;SDS011;58109;53.570;10.084;2022-12-07T04:30:11;1.77;;;1.50;;
70560;SDS011;58109;53.570;10.084;2022-12-07T04:32:37;3.97;;;1.67;;
70560;SDS011;58109;53.570;10.084;2022-12-07T04:35:02;5.73;;;1.70;;
70560;SDS011;58109;53.570;10.084;2022-12-07T04:37:28;8.73;;;1.80;;
70560;SDS011;58109;53.570;10.084;2022-12-07T04:39:53;5.90;;;1.67;;
70560;SDS011;58109;53.570;10.084;2022-12-07T04:42:19;6.70;;;1.80;;
70560;SDS011;58109;53.570;10.084;2022-12-07T04:44:44;2.87;;;1.57;;
70560;SDS011;58109;53.570;10.084;2022-12-07T04:47:09;2.97;;;1.50;;
70560;SDS011;58109;53.570;10.084;2022-12-07T04:49:35;4.73;;;2.00;;
70560;SDS011;58109;53.570;10.084;2022-12-07T04:52:00;4.30;;;1.90;;
70560;SDS011;58109;53.570;10.084;2022-12-07T04:54:26;5.03;;;2.00;;
70560;SDS011;58109;53.570;10.084;2022-12-07T04:56:51;4.53;;;1.77;;
70560;SDS011;58109;53.570;10.084;2022-12-07T04:59:17;9.07;;;2.37;;
70560;SDS011;58109;53.570;10.084;2022-12-07T05:01:42;2.50;;;1.60;;
70560;SDS011;58109;53.570;10.084;2022-12-07T05:04:08;4.00;;;1.80;;
70560;SDS011;58109;53.570;10.084;2022-12-07T05:06:37;2.92;;;1.90;;
70560;SDS011;58109;53.570;10.084;2022-12-07T05:09:08;3.42;;;2.13;;
70560;SDS011;58109;53.570;10.084;2022-12-07T05:11:33;2.30;;;1.83;;
70560;SDS011;58109;53.570;10.084;2022-12-07T05:14:17;12.30;;;3.20;;
70560;SDS011;58109;53.570;10.084;2022-12-07T05:16:45;5.88;;;1.73;;
70560;SDS011;58109;53.570;10.084;2022-12-07T05:19:14;3.45;;;1.90;;
70560;SDS011;58109;53.570;10.084;2022-12-07T05:21:42;15.80;;;2.27;;
70560;SDS011;58109;53.570;10.084;2022-12-07T05:24:09;6.18;;;2.03;;
70560;SDS011;58109;53.570;10.084;2022-12-07T05:26:38;8.32;;;2.17;;
70560;SDS011;58109;53.570;10.084;2022-12-07T05:29:06;5.30;;;2.22;;
70560;SDS011;58109;53.570;10.084;2022-12-07T05:31:32;2.33;;;2.13;;
70560;SDS011;58109;53.570;10.084;2022-12-07T05:33:57;4.07;;;2.10;;
70560;SDS011;58109;53.570;10.084;2022-12-07T05:36:22;8.10;;;2.10;;
70560;SDS011;58109;53.570;10.084;2022-12-07T05:38:51;7.35;;;2.15;;
70560;SDS011;58109;53.570;10.084;2022-12-07T05:41:17;4.03;;;2.00;;
70560;SDS011;58109;53.570;10.084;2022-12-07T05:44:01;3.45;;;2.38;;
70560;SDS011;58109;53.570;10.084;2022-12-07T05:46:29;3.83;;;2.23;;
70560;SDS011;58109;53.570;10.084;2022-12-07T05:48:54;4.15;;;2.25;;
70560;SDS011;58109;53.570;10.084;2022-12-07T05:51:20;9.00;;;2.50;;
70560;SDS011;58109;53.570;10.084;2022-12-07T05:53:45;6.93;;;2.43;;
70560;SDS011;58109;53.570;10.084;2022-12-07T05:56:11;3.70;;;2.40;;
70560;SDS011;58109;53.570;10.084;2022-12-07T05:58:36;7.97;;;2.73;;
70560;SDS011;58109;53.570;10.084;2022-12-07T06:01:21;6.60;;;2.17;;
70560;SDS011;58109;53.570;10.084;2022-12-07T06:03:46;6.87;;;2.27;;
70560;SDS011;58109;53.570;10.084;2022-12-07T06:06:11;6.93;;;2.53;;
70560;SDS011;58109;53.570;10.084;2022-12-07T06:08:37;5.30;;;2.20;;
70560;SDS011;58109;53.570;10.084;2022-12-07T06:11:02;9.20;;;2.50;;
70560;SDS011;58109;53.570;10.084;2022-12-07T06:13:46;5.50;;;3.05;;
70560;SDS011;58109;53.570;10.084;2022-12-07T06:16:14;10.17;;;2.73;;
70560;SDS011;58109;53.570;10.084;2022-12-07T06:18:42;7.45;;;2.20;;
70560;SDS011;58109;53.570;10.084;2022-12-07T06:21:07;5.33;;;2.30;;
70560;SDS011;58109;53.570;10.084;2022-12-07T06:23:33;6.63;;;2.90;;
70560;SDS011;58109;53.570;10.084;2022-12-07T06:25:58;6.37;;;2.30;;
70560;SDS011;58109;53.570;10.084;2022-12-07T06:28:26;6.07;;;2.55;;
70560;SDS011;58109;53.570;10.084;2022-12-07T06:30:58;6.63;;;2.70;;
70560;SDS011;58109;53.570;10.084;2022-12-07T06:33:27;5.55;;;2.55;;
70560;SDS011;58109;53.570;10.084;2022-12-07T06:35:56;4.72;;;2.92;;
70560;SDS011;58109;53.570;10.084;2022-12-07T06:38:21;4.47;;;2.50;;
70560;SDS011;58109;53.570;10.084;2022-12-07T06:40:46;3.17;;;2.60;;
70560;SDS011;58109;53.570;10.084;2022-12-07T06:43:13;5.57;;;2.47;;
70560;SDS011;58109;53.570;10.084;2022-12-07T06:45:40;5.50;;;2.60;;
70560;SDS011;58109;53.570;10.084;2022-12-07T06:48:06;3.80;;;2.83;;
70560;SDS011;58109;53.570;10.084;2022-12-07T06:50:34;6.53;;;2.83;;
70560;SDS011;58109;53.570;10.084;2022-12-07T06:53:09;5.10;;;2.47;;
70560;SDS011;58109;53.570;10.084;2022-12-07T06:55:39;3.60;;;2.78;;
70560;SDS011;58109;53.570;10.084;2022-12-07T06:58:10;7.75;;;4.60;;
70560;SDS011;58109;53.570;10.084;2022-12-07T07:00:38;5.07;;;2.70;;
70560;SDS011;58109;53.570;10.084;2022-12-07T07:03:39;5.05;;;2.75;;
70560;SDS011;58109;53.570;10.084;2022-12-07T07:06:07;5.07;;;2.55;;
70560;SDS011;58109;53.570;10.084;2022-12-07T07:08:33;12.57;;;2.60;;
70560;SDS011;58109;53.570;10.084;2022-12-07T07:11:02;6.45;;;1.92;;
70560;SDS011;58109;53.570;10.084;2022-12-07T07:13:27;2.10;;;1.80;;
70560;SDS011;58109;53.570;10.084;2022-12-07T07:15:53;4.27;;;1.83;;
70560;SDS011;58109;53.570;10.084;2022-12-07T07:18:26;5.75;;;1.98;;
70560;SDS011;58109;53.570;10.084;2022-12-07T07:20:54;5.43;;;1.90;;
70560;SDS011;58109;53.570;10.084;2022-12-07T07:23:20;12.43;;;2.10;;
70560;SDS011;58109;53.570;10.084;2022-12-07T07:25:48;5.63;;;2.08;;
70560;SDS011;58109;53.570;10.084;2022-12-07T07:28:16;4.63;;;1.53;;
70560;SDS011;58109;53.570;10.084;2022-12-07T07:30:44;3.45;;;1.48;;
70560;SDS011;58109;53.570;10.084;2022-12-07T07:33:10;8.45;;;2.00;;
70560;SDS011;58109;53.570;10.084;2022-12-07T07:35:39;2.85;;;1.63;;
70560;SDS011;58109;53.570;10.084;2022-12-07T07:38:04;10.90;;;1.70;;
70560;SDS011;58109;53.570;10.084;2022-12-07T07:40:30;3.77;;;1.93;;
70560;SDS011;58109;53.570;10.084;2022-12-07T07:42:56;15.13;;;1.60;;
70560;SDS011;58109;53.570;10.084;2022-12-07T07:45:22;6.13;;;1.47;;
70560;SDS011;58109;53.570;10.084;2022-12-07T07:47:48;4.38;;;1.55;;
70560;SDS011;58109;53.570;10.084;2022-12-07T07:50:14;5.23;;;1.57;;
70560;SDS011;58109;53.570;10.084;2022-12-07T07:52:42;8.85;;;1.52;;
70560;SDS011;58109;53.570;10.084;2022-12-07T07:55:07;9.27;;;1.73;;
70560;SDS011;58109;53.570;10.084;2022-12-07T07:57:34;3.30;;;1.40;;
70560;SDS011;58109;53.570;10.084;2022-12-07T08:00:00;8.00;;;1.65;;
70560;SDS011;58109;53.570;10.084;2022-12-07T08:02:25;1.90;;;1.63;;
70560;SDS011;58109;53.570;10.084;2022-12-07T08:04:51;10.07;;;1.30;;
70560;SDS011;58109;53.570;10.084;2022-12-07T08:07:16;3.47;;;1.20;;
70560;SDS011;58109;53.570;10.084;2022-12-07T08:09:44;6.93;;;1.40;;
70560;SDS011;58109;53.570;10.084;2022-12-07T08:12:10;6.27;;;1.30;;
70560;SDS011;58109;53.570;10.084;2022-12-07T08:14:35;5.03;;;1.77;;
70560;SDS011;58109;53.570;10.084;2022-12-07T08:17:03;3.70;;;1.15;;
70560;SDS011;58109;53.570;10.084;2022-12-07T08:19:30;5.38;;;1.60;;
70560;SDS011;58109;53.570;10.084;2022-12-07T08:21:56;4.53;;;1.40;;
70560;SDS011;58109;53.570;10.084;2022-12-07T08:24:22;5.77;;;1.33;;
70560;SDS011;58109;53.570;10.084;2022-12-07T08:26:48;14.18;;;1.52;;
70560;SDS011;58109;53.570;10.084;2022-12-07T08:29:15;3.42;;;1.88;;
70560;SDS011;58109;53.570;10.084;2022-12-07T08:31:40;13.67;;;2.10;;
70560;SDS011;58109;53.570;10.084;2022-12-07T08:34:09;10.20;;;1.55;;
70560;SDS011;58109;53.570;10.084;2022-12-07T08:36:35;2.45;;;1.00;;
70560;SDS011;58109;53.570;10.084;2022-12-07T08:39:01;14.70;;;2.05;;
70560;SDS011;58109;53.570;10.084;2022-12-07T08:41:27;9.93;;;1.97;;
70560;SDS011;58109;53.570;10.084;2022-12-07T08:43:52;6.00;;;1.60;;
70560;SDS011;58109;53.570;10.084;2022-12-07T08:46:18;9.30;;;1.60;;
70560;SDS011;58109;53.570;10.084;2022-12-07T08:48:50;10.35;;;2.45;;
70560;SDS011;58109;53.570;10.084;2022-12-07T08:51:23;5.72;;;2.40;;
70560;SDS011;58109;53.570;10.084;2022-12-07T08:53:51;8.38;;;1.77;;
70560;SDS011;58109;53.570;10.084;2022-12-07T08:56:19;8.18;;;1.83;;
70560;SDS011;58109;53.570;10.084;2022-12-07T08:58:46;9.75;;;1.40;;
70560;SDS011;58109;53.570;10.084;2022-12-07T09:01:12;4.33;;;1.37;;
70560;SDS011;58109;53.570;10.084;2022-12-07T09:03:40;9.67;;;1.87;;
70560;SDS011;58109;53.570;10.084;2022-12-07T09:06:05;2.72;;;1.63;;
70560;SDS011;58109;53.570;10.084;2022-12-07T09:08:33;6.87;;;1.43;;
70560;SDS011;58109;53.570;10.084;2022-12-07T09:11:08;9.43;;;1.35;;
70560;SDS011;58109;53.570;10.084;2022-12-07T09:13:33;10.68;;;1.63;;
70560;SDS011;58109;53.570;10.084;2022-12-07T09:16:03;10.27;;;1.73;;
70560;SDS011;58109;53.570;10.084;2022-12-07T09:18:30;1.60;;;1.33;;
70560;SDS011;58109;53.570;10.084;2022-12-07T09:20:58;5.30;;;1.60;;
70560;SDS011;58109;53.570;10.084;2022-12-07T09:23:29;5.65;;;1.80;;
70560;SDS011;58109;53.570;10.084;2022-12-07T09:25:58;10.93;;;1.60;;
70560;SDS011;58109;53.570;10.084;2022-12-07T09:28:24;9.48;;;1.50;;
70560;SDS011;58109;53.570;10.084;2022-12-07T09:30:52;3.97;;;1.40;;
70560;SDS011;58109;53.570;10.084;2022-12-07T09:33:20;4.13;;;1.53;;
70560;SDS011;58109;53.570;10.084;2022-12-07T09:35:45;6.10;;;1.35;;
70560;SDS011;58109;53.570;10.084;2022-12-07T09:38:12;6.07;;;1.40;;
70560;SDS011;58109;53.570;10.084;2022-12-07T09:40:38;18.80;;;1.93;;
70560;SDS011;58109;53.570;10.084;2022-12-07T09:43:03;5.40;;;1.43;;
70560;SDS011;58109;53.570;10.084;2022-12-07T09:45:33;7.13;;;1.30;;
70560;SDS011;58109;53.570;10.084;2022-12-07T09:48:00;4.50;;;1.10;;
70560;SDS011;58109;53.570;10.084;2022-12-07T09:50:26;4.70;;;1.37;;
70560;SDS011;58109;53.570;10.084;2022-12-07T09:53:01;4.60;;;1.50;;
70560;SDS011;58109;53.570;10.084;2022-12-07T09:55:38;16.13;;;1.55;;
70560;SDS011;58109;53.570;10.084;2022-12-07T09:58:08;6.47;;;1.70;;
70560;SDS011;58109;53.570;10.084;2022-12-07T10:00:44;17.90;;;2.38;;
70560;SDS011;58109;53.570;10.084;2022-12-07T10:03:10;9.67;;;1.87;;
70560;SDS011;58109;53.570;10.084;2022-12-07T10:05:41;6.53;;;1.42;;
70560;SDS011;58109;53.570;10.084;2022-12-07T10:08:11;9.77;;;2.67;;
70560;SDS011;58109;53.570;10.084;2022-12-07T10:10:37;8.57;;;2.10;;
70560;SDS011;58109;53.570;10.084;2022-12-07T10:13:10;3.47;;;1.60;;
70560;SDS011;58109;53.570;10.084;2022-12-07T10:15:48;7.60;;;1.45;;
70560;SDS011;58109;53.570;10.084;2022-12-07T10:18:32;4.85;;;1.30;;
70560;SDS011;58109;53.570;10.084;2022-12-07T10:23:38;11.15;;;1.58;;
70560;SDS011;58109;53.570;10.084;2022-12-07T10:26:26;8.27;;;1.40;;
70560;SDS011;58109;53.570;10.084;2022-12-07T10:29:22;5.75;;;1.42;;
70560;SDS011;58109;53.570;10.084;2022-12-07T10:31:59;3.67;;;1.25;;
70560;SDS011;58109;53.570;10.084;2022-12-07T10:34:49;8.82;;;1.25;;
70560;SDS011;58109;53.570;10.084;2022-12-07T10:39:52;7.07;;;1.38;;
70560;SDS011;58109;53.570;10.084;2022-12-07T10:42:26;5.97;;;1.30;;
70560;SDS011;58109;53.570;10.084;2022-12-07T10:45:12;1.92;;;1.10;;
70560;SDS011;58109;53.570;10.084;2022-12-07T11:07:36;11.93;;;1.50;;
70560;SDS011;58109;53.570;10.084;2022-12-07T11:19:11;4.70;;;1.90;;
70560;SDS011;58109;53.570;10.084;2022-12-07T11:23:48;6.57;;;1.80;;
70560;SDS011;58109;53.570;10.084;2022-12-07T11:38:20;10.27;;;1.48;;
70560;SDS011;58109;53.570;10.084;2022-12-07T11:40:49;13.32;;;1.75;;
70560;SDS011;58109;53.570;10.084;2022-12-07T11:46:09;17.23;;;2.28;;
70560;SDS011;58109;53.570;10.084;2022-12-07T11:48:42;11.05;;;1.55;;
70560;SDS011;58109;53.570;10.084;2022-12-07T11:51:32;6.05;;;1.42;;
70560;SDS011;58109;53.570;10.084;2022-12-07T11:54:05;7.40;;;1.63;;
70560;SDS011;58109;53.570;10.084;2022-12-07T11:56:49;7.85;;;1.75;;
70560;SDS011;58109;53.570;10.084;2022-12-07T11:59:45;5.60;;;1.35;;
70560;SDS011;58109;53.570;10.084;2022-12-07T12:02:19;17.70;;;2.15;;
70560;SDS011;58109;53.570;10.084;2022-12-07T12:07:24;10.70;;;1.70;;
70560;SDS011;58109;53.570;10.084;2022-12-07T12:09:56;10.50;;;1.90;;
70560;SDS011;58109;53.570;10.084;2022-12-07T12:20:55;9.95;;;1.95;;
70560;SDS011;58109;53.570;10.084;2022-12-07T12:23:32;11.48;;;1.65;;
70560;SDS011;58109;53.570;10.084;2022-12-07T12:26:18;10.00;;;1.77;;
70560;SDS011;58109;53.570;10.084;2022-12-07T12:28:59;5.63;;;1.40;;
70560;SDS011;58109;53.570;10.084;2022-12-07T12:31:41;8.00;;;1.50;;
70560;SDS011;58109;53.570;10.084;2022-12-07T12:36:55;10.70;;;1.90;;
70560;SDS011;58109;53.570;10.084;2022-12-07T12:39:22;11.67;;;1.40;;
70560;SDS011;58109;53.570;10.084;2022-12-07T12:41:51;4.10;;;1.30;;
70560;SDS011;58109;53.570;10.084;2022-12-07T12:51:52;9.87;;;1.37;;
70560;SDS011;58109;53.570;10.084;2022-12-07T12:54:37;11.77;;;2.27;;
70560;SDS011;58109;53.570;10.084;2022-12-07T13:23:36;7.00;;;2.00;;
70560;SDS011;58109;53.570;10.084;2022-12-07T13:31:43;9.33;;;1.17;;
70560;SDS011;58109;53.570;10.084;2022-12-07T13:37:10;3.72;;;1.10;;
70560;SDS011;58109;53.570;10.084;2022-12-07T13:39:47;5.30;;;1.40;;
70560;SDS011;58109;53.570;10.084;2022-12-07T13:42:19;6.28;;;1.83;;
70560;SDS011;58109;53.570;10.084;2022-12-07T13:45:31;6.37;;;1.10;;
70560;SDS011;58109;53.570;10.084;2022-12-07T13:47:53;9.88;;;1.50;;
70560;SDS011;58109;53.570;10.084;2022-12-07T13:52:54;13.73;;;3.03;;
70560;SDS011;58109;53.570;10.084;2022-12-07T13:55:44;7.20;;;2.03;;
70560;SDS011;58109;53.570;10.084;2022-12-07T13:58:16;5.37;;;1.67;;
70560;SDS011;58109;53.570;10.084;2022-12-07T14:00:42;18.35;;;1.88;;
70560;SDS011;58109;53.570;10.084;2022-12-07T14:05:52;11.10;;;1.50;;
70560;SDS011;58109;53.570;10.084;2022-12-07T14:08:50;6.83;;;1.50;;
70560;SDS011;58109;53.570;10.084;2022-12-07T14:11:27;7.03;;;1.30;;
70560;SDS011;58109;53.570;10.084;2022-12-07T14:14:15;7.50;;;1.60;;
70560;SDS011;58109;53.570;10.084;2022-12-07T14:17:09;9.63;;;1.47;;
70560;SDS011;58109;53.570;10.084;2022-12-07T14:19:59;6.18;;;1.60;;
70560;SDS011;58109;53.570;10.084;2022-12-07T14:22:36;5.60;;;1.30;;
70560;SDS011;58109;53.570;10.084;2022-12-07T14:25:19;13.73;;;1.87;;
70560;SDS011;58109;53.570;10.084;2022-12-07T14:30:23;12.02;;;1.30;;
70560;SDS011;58109;53.570;10.084;2022-12-07T14:32:51;14.07;;;3.80;;
70560;SDS011;58109;53.570;10.084;2022-12-07T14:35:18;9.53;;;2.07;;
70560;SDS011;58109;53.570;10.084;2022-12-07T14:37:45;8.80;;;1.23;;
70560;SDS011;58109;53.570;10.084;2022-12-07T14:40:22;4.68;;;1.05;;
70560;SDS011;58109;53.570;10.084;2022-12-07T14:42:55;3.70;;;1.00;;
70560;SDS011;58109;53.570;10.084;2022-12-07T14:45:23;2.35;;;1.20;;
70560;SDS011;58109;53.570;10.084;2022-12-07T14:51:27;8.00;;;1.37;;
70560;SDS011;58109;53.570;10.084;2022-12-07T14:53:53;9.20;;;1.47;;
70560;SDS011;58109;53.570;10.084;2022-12-07T14:56:18;4.67;;;1.33;;
70560;SDS011;58109;53.570;10.084;2022-12-07T14:58:44;7.00;;;1.50;;
70560;SDS011;58109;53.570;10.084;2022-12-07T15:01:13;6.90;;;1.23;;
70560;SDS011;58109;53.570;10.084;2022-12-07T15:03:38;6.90;;;1.20;;
70560;SDS011;58109;53.570;10.084;2022-12-07T15:06:04;9.20;;;1.10;;
70560;SDS011;58109;53.570;10.084;2022-12-07T15:08:30;4.20;;;1.40;;
70560;SDS011;58109;53.570;10.084;2022-12-07T15:10:56;5.03;;;1.20;;
70560;SDS011;58109;53.570;10.084;2022-12-07T15:13:24;5.40;;;1.87;;
70560;SDS011;58109;53.570;10.084;2022-12-07T15:16:10;6.97;;;1.47;;
70560;SDS011;58109;53.570;10.084;2022-12-07T15:18:36;6.25;;;0.98;;
70560;SDS011;58109;53.570;10.084;2022-12-07T15:21:05;6.23;;;1.00;;
70560;SDS011;58109;53.570;10.084;2022-12-07T15:23:36;6.47;;;1.30;;
70560;SDS011;58109;53.570;10.084;2022-12-07T15:26:02;12.27;;;1.33;;
70560;SDS011;58109;53.570;10.084;2022-12-07T15:28:27;11.37;;;4.63;;
70560;SDS011;58109;53.570;10.084;2022-12-07T15:30:55;8.35;;;2.25;;
70560;SDS011;58109;53.570;10.084;2022-12-07T15:33:20;5.70;;;1.30;;
70560;SDS011;58109;53.570;10.084;2022-12-07T15:35:49;9.63;;;1.60;;
70560;SDS011;58109;53.570;10.084;2022-12-07T15:38:17;5.87;;;1.30;;
70560;SDS011;58109;53.570;10.084;2022-12-07T15:40:46;9.30;;;1.50;;
70560;SDS011;58109;53.570;10.084;2022-12-07T15:43:11;5.72;;;1.02;;
70560;SDS011;58109;53.570;10.084;2022-12-07T15:45:55;13.63;;;1.60;;
70560;SDS011;58109;53.570;10.084;2022-12-07T15:48:24;5.07;;;1.10;;
70560;SDS011;58109;53.570;10.084;2022-12-07T15:50:50;5.00;;;1.10;;
70560;SDS011;58109;53.570;10.084;2022-12-07T15:53:15;14.00;;;1.50;;
70560;SDS011;58109;53.570;10.084;2022-12-07T15:55:41;1.90;;;1.20;;
70560;SDS011;58109;53.570;10.084;2022-12-07T15:58:06;7.93;;;1.83;;
70560;SDS011;58109;53.570;10.084;2022-12-07T16:00:32;7.37;;;1.20;;
70560;SDS011;58109;53.570;10.084;2022-12-07T16:02:57;9.83;;;1.70;;
70560;SDS011;58109;53.570;10.084;2022-12-07T16:05:23;8.97;;;1.60;;
70560;SDS011;58109;53.570;10.084;2022-12-07T16:07:48;4.47;;;0.90;;
70560;SDS011;58109;53.570;10.084;2022-12-07T16:10:14;8.00;;;1.33;;
70560;SDS011;58109;53.570;10.084;2022-12-07T16:12:39;7.07;;;1.60;;
70560;SDS011;58109;53.570;10.084;2022-12-07T16:15:07;12.40;;;1.27;;
70560;SDS011;58109;53.570;10.084;2022-12-07T16:17:33;3.00;;;1.35;;
70560;SDS011;58109;53.570;10.084;2022-12-07T16:19:58;5.60;;;1.57;;
70560;SDS011;58109;53.570;10.084;2022-12-07T16:22:24;2.77;;;0.90;;
70560;SDS011;58109;53.570;10.084;2022-12-07T16:24:51;10.73;;;1.25;;
70560;SDS011;58109;53.570;10.084;2022-12-07T16:30:07;5.18;;;1.15;;
70560;SDS011;58109;53.570;10.084;2022-12-07T16:32:38;4.15;;;1.30;;
70560;SDS011;58109;53.570;10.084;2022-12-07T16:35:06;3.78;;;1.35;;
70560;SDS011;58109;53.570;10.084;2022-12-07T16:37:43;6.43;;;1.00;;
70560;SDS011;58109;53.570;10.084;2022-12-07T16:40:09;5.20;;;1.30;;
70560;SDS011;58109;53.570;10.084;2022-12-07T16:42:37;5.05;;;1.33;;
70560;SDS011;58109;53.570;10.084;2022-12-07T16:45:06;1.92;;;1.10;;
70560;SDS011;58109;53.570;10.084;2022-12-07T16:47:31;1.23;;;0.97;;
70560;SDS011;58109;53.570;10.084;2022-12-07T16:49:57;7.13;;;1.60;;
70560;SDS011;58109;53.570;10.084;2022-12-07T16:52:22;8.80;;;1.37;;
70560;SDS011;58109;53.570;10.084;2022-12-07T16:54:53;7.72;;;1.35;;
70560;SDS011;58109;53.570;10.084;2022-12-07T16:57:18;5.18;;;1.30;;
70560;SDS011;58109;53.570;10.084;2022-12-07T17:03:07;10.93;;;1.45;;
70560;SDS011;58109;53.570;10.084;2022-12-07T17:05:33;9.07;;;1.63;;
70560;SDS011;58109;53.570;10.084;2022-12-07T17:07:58;8.83;;;1.70;;
70560;SDS011;58109;53.570;10.084;2022-12-07T17:10:24;5.60;;;1.60;;
70560;SDS011;58109;53.570;10.084;2022-12-07T17:12:50;9.15;;;1.73;;
70560;SDS011;58109;53.570;10.084;2022-12-07T17:15:18;13.98;;;2.45;;
70560;SDS011;58109;53.570;10.084;2022-12-07T17:17:51;4.40;;;1.50;;
70560;SDS011;58109;53.570;10.084;2022-12-07T17:20:32;5.85;;;2.20;;